Time;durP1;ratioP1;P1;durP2;ratioP2;P2;SDS_P1;SDS_P2;PMS_P1;PMS_P2;Temp;Humidity;BMP_temperature;BMP_pressure;BME280_temperature;BME280_humidity;BME280_pressure;Samples;Min_cycle;Max_cycle;Signal;HPM_P1;HPM_P2
2022/04/05 00:01:12;;;;;;;1.10;1.00;;;15.70;51.00;14.80;99899.00;;;;5061744;28;20099;-68
2022/04/05 00:03:58;;;;;;;1.33;1.10;;;15.70;51.00;14.80;99906.00;;;;5057372;28;20410;-68
2022/04/05 00:06:44;;;;;;;1.25;1.15;;;15.70;51.00;14.80;99914.00;;;;5057718;28;20044;-68
2022/04/05 00:09:30;;;;;;;1.30;1.20;;;15.70;51.60;14.90;99909.00;;;;5058253;28;20044;-68
2022/04/05 00:12:20;;;;;;;1.15;1.05;;;15.70;50.90;14.90;99915.00;;;;5060031;28;20037;-68
2022/04/05 00:15:09;;;;;;;1.50;1.27;;;15.80;50.80;14.90;99908.00;;;;5064257;28;20040;-68
2022/04/05 00:17:55;;;;;;;1.83;1.10;;;15.70;50.70;14.90;99918.00;;;;5056192;28;20089;-68
2022/04/05 00:20:41;;;;;;;2.35;1.08;;;15.80;50.70;14.90;99919.00;;;;5064356;28;20051;-68
2022/04/05 00:23:27;;;;;;;1.58;1.10;;;15.80;50.70;14.90;99915.00;;;;5056354;28;20418;-68
2022/04/05 00:26:13;;;;;;;0.90;0.90;;;15.80;50.70;14.90;99916.00;;;;5061570;28;20126;-68
2022/04/05 00:28:59;;;;;;;1.10;1.00;;;15.80;50.60;14.90;99919.00;;;;5060323;28;20049;-68
2022/04/05 00:31:45;;;;;;;1.73;0.90;;;15.80;50.60;14.90;99918.00;;;;5059734;28;20037;-68
2022/04/05 00:34:31;;;;;;;4.43;1.00;;;16.00;50.70;15.00;99935.00;;;;5070907;28;20048;-68
2022/04/05 00:37:17;;;;;;;0.82;0.75;;;15.80;50.50;15.00;99929.00;;;;5035294;28;20051;-68
2022/04/05 00:40:05;;;;;;;0.77;0.77;;;15.80;50.50;15.00;99927.00;;;;5041439;28;20139;-68
2022/04/05 00:42:51;;;;;;;;;;;15.80;50.50;14.90;99928.00;;;;5049437;28;20084;-68
2022/04/05 00:45:37;;;;;;;1.33;0.80;;;15.90;50.40;14.90;99925.00;;;;5059465;28;19920;-68
2022/04/05 00:48:52;;;;;;;0.93;0.80;;;15.90;50.40;14.90;99918.00;;;;5064446;28;20045;-68
2022/04/05 00:51:38;;;;;;;0.77;0.77;;;15.90;50.40;14.90;99924.00;;;;5048262;28;20048;-68
2022/04/05 00:54:25;;;;;;;1.42;0.70;;;15.90;50.40;14.90;99921.00;;;;5059217;28;20041;-69
2022/04/05 00:57:19;;;;;;;0.80;0.60;;;15.80;50.40;14.90;99921.00;;;;5049659;28;20251;-68
2022/04/05 01:00:07;;;;;;;0.85;0.70;;;15.80;50.40;14.90;99922.00;;;;5056402;28;20386;-68
2022/04/05 01:02:54;;;;;;;;;;;15.80;50.40;14.90;99925.00;;;;5047824;28;20199;-68
2022/04/05 01:05:40;;;;;;;0.90;0.75;;;15.80;50.20;14.90;99919.00;;;;5066744;28;19912;-68
2022/04/05 01:08:26;;;;;;;2.10;0.68;;;15.90;50.30;14.90;99926.00;;;;5059551;28;20041;-68
2022/04/05 01:11:12;;;;;;;0.95;0.60;;;15.80;50.30;14.90;99922.00;;;;5043856;28;20044;-68
2022/04/05 01:13:58;;;;;;;0.55;0.52;;;15.80;50.30;14.90;99919.00;;;;5053246;28;20302;-68
2022/04/05 01:16:44;;;;;;;0.70;0.60;;;15.80;50.30;14.90;99918.00;;;;5059605;28;20118;-68
2022/04/05 01:19:32;;;;;;;0.65;0.52;;;15.80;50.40;14.90;99918.00;;;;5055182;28;20402;-69
2022/04/05 01:22:18;;;;;;;0.70;0.60;;;15.80;50.40;14.90;99913.00;;;;5055059;28;20099;-68
2022/04/05 01:25:04;;;;;;;1.02;0.60;;;15.80;50.40;14.90;99911.00;;;;5057871;28;20474;-68
2022/04/05 01:27:51;;;;;;;1.25;0.60;;;15.80;50.50;14.90;99910.00;;;;5059314;28;20055;-68
2022/04/05 01:30:37;;;;;;;0.47;0.43;;;15.80;50.50;14.90;99918.00;;;;5058566;28;20047;-68
2022/04/05 01:33:23;;;;;;;1.45;0.50;;;15.80;50.40;14.90;99925.00;;;;5067251;28;20040;-68
2022/04/05 01:36:22;;;;;;;2.47;0.60;;;15.80;50.50;14.90;99930.00;;;;5055420;28;20049;-68
2022/04/05 01:39:12;;;;;;;0.55;0.50;;;15.90;50.80;14.90;99932.00;;;;5064964;28;20044;-68
2022/04/05 01:42:03;;;;;;;0.45;0.40;;;15.70;50.60;14.90;99922.00;;;;5061450;28;20044;-68
2022/04/05 01:44:49;;;;;;;0.95;0.40;;;15.70;50.60;14.90;99918.00;;;;5054619;28;20052;-68
2022/04/05 01:47:38;;;;;;;2.22;0.47;;;15.80;50.60;14.90;99923.00;;;;5068019;28;20040;-68
2022/04/05 01:50:24;;;;;;;0.50;0.50;;;15.80;50.60;14.90;99920.00;;;;5066405;28;20516;-68
2022/04/05 01:53:11;;;;;;;0.75;0.43;;;15.80;50.60;14.90;99915.00;;;;5050382;28;20048;-68
2022/04/05 01:55:57;;;;;;;0.60;0.47;;;15.80;50.60;14.90;99915.00;;;;5058093;28;20126;-69
2022/04/05 01:58:43;;;;;;;0.73;0.40;;;15.80;50.60;15.00;99914.00;;;;5059177;28;20045;-68
2022/04/05 02:01:29;;;;;;;0.38;0.25;;;15.80;50.50;15.00;99918.00;;;;5059071;28;20311;-69
2022/04/05 02:04:15;;;;;;;0.30;0.30;;;15.90;50.60;15.00;99918.00;;;;5056496;28;20471;-69
2022/04/05 02:07:14;;;;;;;0.45;0.43;;;15.90;50.60;15.00;99932.00;;;;5042391;28;20037;-68
2022/04/05 02:10:00;;;;;;;0.40;0.35;;;15.80;50.50;15.00;99921.00;;;;5061175;28;20487;-68
2022/04/05 02:12:46;;;;;;;0.25;0.25;;;15.80;50.40;15.00;99933.00;;;;5063495;28;20045;-68
2022/04/05 02:15:32;;;;;;;0.80;0.40;;;15.80;50.40;15.00;99923.00;;;;5050590;28;20036;-68
2022/04/05 02:18:18;;;;;;;0.63;0.20;;;15.80;50.40;15.00;99935.00;;;;5054277;28;20240;-68
2022/04/05 02:21:05;;;;;;;0.70;0.50;;;15.80;50.40;15.00;99935.00;;;;5048249;28;20047;-69
2022/04/05 02:23:51;;;;;;;0.30;0.30;;;15.90;50.40;15.00;99944.00;;;;5061916;28;20087;-69
2022/04/05 02:26:37;;;;;;;0.75;0.30;;;15.80;50.40;15.00;99936.00;;;;5055750;28;20138;-68
2022/04/05 02:29:23;;;;;;;1.00;0.40;;;15.90;50.40;15.00;99934.00;;;;5055772;28;20045;-68
2022/04/05 02:32:09;;;;;;;0.20;0.15;;;15.90;50.40;15.00;99938.00;;;;5056877;28;20040;-68
2022/04/05 02:34:55;;;;;;;1.83;0.40;;;15.90;50.40;15.00;99937.00;;;;5063003;28;20482;-69
2022/04/05 02:37:41;;;;;;;2.08;0.43;;;15.90;50.40;15.00;99946.00;;;;5059070;28;20059;-68
2022/04/05 02:40:27;;;;;;;0.80;0.40;;;15.90;50.30;15.00;99938.00;;;;5067912;28;20057;-69
2022/04/05 02:43:14;;;;;;;0.35;0.30;;;15.90;50.30;15.00;99954.00;;;;5057210;28;20049;-68
2022/04/05 02:46:00;;;;;;;0.55;0.30;;;15.90;50.30;15.00;99948.00;;;;5055664;28;20645;-68
2022/04/05 02:48:46;;;;;;;0.82;0.40;;;15.90;50.30;15.00;99948.00;;;;5062857;28;20048;-69
2022/04/05 02:51:32;;;;;;;0.85;0.30;;;15.90;50.30;15.10;99957.00;;;;5055617;28;20041;-69
2022/04/05 02:54:18;;;;;;;0.50;0.25;;;15.90;50.20;15.10;99963.00;;;;5059607;28;20032;-69
2022/04/05 02:57:04;;;;;;;1.10;0.20;;;15.90;50.20;15.10;99966.00;;;;5052207;28;20048;-69
2022/04/05 02:59:50;;;;;;;0.45;0.20;;;15.90;50.20;15.10;99959.00;;;;5055238;28;20467;-68
2022/04/05 03:02:37;;;;;;;0.40;0.22;;;15.90;50.20;15.10;99965.00;;;;5062053;28;20551;-68
2022/04/05 03:05:24;;;;;;;0.50;0.20;;;15.90;50.20;15.10;99969.00;;;;5073323;28;20482;-68
2022/04/05 03:08:10;;;;;;;0.43;0.22;;;15.90;50.10;15.10;99983.00;;;;5053839;28;20482;-69
2022/04/05 03:10:56;;;;;;;0.30;0.22;;;15.90;50.10;15.00;99976.00;;;;5055333;28;20056;-68
2022/04/05 03:13:43;;;;;;;0.32;0.20;;;15.90;50.10;15.00;99972.00;;;;5059033;28;20045;-69
2022/04/05 03:16:29;;;;;;;0.35;0.30;;;15.90;50.10;15.00;99975.00;;;;5063708;28;20040;-68
2022/04/05 03:19:15;;;;;;;0.50;0.15;;;15.90;50.10;15.00;99983.00;;;;5041644;28;20155;-68
2022/04/05 03:22:01;;;;;;;0.60;0.28;;;15.90;50.20;15.00;99983.00;;;;5065807;28;20036;-69
2022/04/05 03:24:47;;;;;;;0.80;0.20;;;15.90;50.20;15.00;99984.00;;;;5045636;28;20071;-68
2022/04/05 03:27:33;;;;;;;0.10;0.10;;;15.90;50.20;15.00;99986.00;;;;5060495;28;20478;-69
2022/04/05 03:30:21;;;;;;;0.52;0.20;;;16.00;50.20;15.00;99990.00;;;;5065513;28;20052;-68
2022/04/05 03:33:07;;;;;;;0.25;0.17;;;15.90;50.20;15.00;99984.00;;;;5033276;28;20471;-69
2022/04/05 03:35:55;;;;;;;0.32;0.20;;;15.90;50.30;15.00;99984.00;;;;5060126;28;20395;-68
2022/04/05 03:38:41;;;;;;;;;;;15.90;50.20;15.00;99990.00;;;;5066442;28;20044;-68
2022/04/05 03:41:27;;;;;;;0.50;0.50;;;15.90;50.10;15.00;99994.00;;;;5055999;28;20325;-68
2022/04/05 03:44:13;;;;;;;0.45;0.20;;;15.90;50.10;15.00;99987.00;;;;5057856;28;20041;-68
2022/04/05 03:47:00;;;;;;;0.55;0.20;;;15.90;50.20;15.00;99990.00;;;;5041236;28;20410;-68
2022/04/05 03:49:46;;;;;;;1.30;0.20;;;15.90;50.20;15.00;99995.00;;;;5065365;28;20045;-68
2022/04/05 03:52:32;;;;;;;0.22;0.22;;;15.90;50.30;15.00;99986.00;;;;5060174;28;20028;-68
2022/04/05 03:55:18;;;;;;;0.65;0.20;;;15.90;50.30;15.00;99997.00;;;;5062532;28;20041;-68
2022/04/05 03:58:04;;;;;;;1.08;0.28;;;15.80;50.20;15.00;99991.00;;;;5061234;28;20484;-69
2022/04/05 04:00:51;;;;;;;1.10;0.30;;;15.80;50.30;15.00;99988.00;;;;5060309;28;20036;-68
2022/04/05 04:03:37;;;;;;;0.90;0.30;;;15.80;50.30;15.00;99990.00;;;;5064585;28;20036;-68
2022/04/05 04:06:23;;;;;;;0.45;0.30;;;15.80;50.30;15.00;99991.00;;;;5046493;28;20459;-68
2022/04/05 04:09:11;;;;;;;1.75;0.30;;;15.80;50.30;15.00;99990.00;;;;5065757;28;20041;-68
2022/04/05 04:11:57;;;;;;;0.85;0.40;;;15.80;50.30;15.00;99994.00;;;;5060608;28;20048;-68
2022/04/05 04:14:43;;;;;;;0.28;0.20;;;15.80;50.20;15.00;99990.00;;;;5055377;28;20043;-69
2022/04/05 04:17:29;;;;;;;0.57;0.30;;;15.80;50.20;15.00;99990.00;;;;5051260;28;20047;-68
2022/04/05 04:20:15;;;;;;;0.73;0.50;;;15.80;50.30;15.00;99990.00;;;;5057361;28;20402;-68
2022/04/05 04:23:01;;;;;;;1.42;0.20;;;15.90;50.30;15.00;99990.00;;;;5055524;28;20036;-68
2022/04/05 04:25:47;;;;;;;0.20;0.17;;;15.80;50.20;15.00;99987.00;;;;5052346;28;20044;-69
2022/04/05 04:28:34;;;;;;;0.35;0.20;;;15.90;50.30;15.00;99998.00;;;;5060150;28;20048;-68
2022/04/05 04:31:20;;;;;;;0.90;0.30;;;15.80;50.20;15.00;100001.00;;;;5062025;28;20089;-69
2022/04/05 04:34:06;;;;;;;0.90;0.30;;;15.90;50.30;15.00;99999.00;;;;5060929;28;20505;-69
2022/04/05 04:36:52;;;;;;;0.65;0.25;;;15.90;50.30;15.00;100003.00;;;;5056280;28;20258;-69
2022/04/05 04:39:38;;;;;;;0.20;0.20;;;15.90;50.30;15.00;99997.00;;;;5056921;28;20421;-68
2022/04/05 04:42:24;;;;;;;0.47;0.25;;;15.90;50.30;15.00;100001.00;;;;5049806;28;20051;-68
2022/04/05 04:45:11;;;;;;;0.75;0.20;;;15.90;50.30;15.00;100017.00;;;;5050505;28;20043;-68
2022/04/05 04:47:57;;;;;;;0.60;0.30;;;15.90;50.30;15.00;100021.00;;;;5044746;28;20045;-69
2022/04/05 04:50:43;;;;;;;0.52;0.20;;;15.90;50.30;15.00;100016.00;;;;5042458;28;20037;-68
2022/04/05 04:53:30;;;;;;;0.63;0.30;;;15.90;50.20;15.00;100027.00;;;;5058010;28;20033;-69
2022/04/05 04:56:16;;;;;;;0.40;0.20;;;15.90;50.20;15.00;100021.00;;;;5059715;28;20559;-68
2022/04/05 04:59:02;;;;;;;0.47;0.28;;;15.90;50.20;15.00;100041.00;;;;5058594;28;20044;-69
2022/04/05 05:01:48;;;;;;;0.65;0.30;;;15.90;50.20;15.10;100024.00;;;;5059242;28;20040;-68
2022/04/05 05:04:34;;;;;;;0.32;0.20;;;15.90;50.20;15.10;100030.00;;;;5060797;28;20097;-69
2022/04/05 05:07:20;;;;;;;0.57;0.30;;;15.90;50.20;15.10;100026.00;;;;5056188;28;20052;-69
2022/04/05 05:10:07;;;;;;;0.47;0.20;;;15.90;50.10;15.10;100035.00;;;;5063730;28;20053;-69
2022/04/05 05:12:53;;;;;;;0.73;0.20;;;15.90;50.10;15.10;100032.00;;;;5073011;28;20044;-68
2022/04/05 05:15:39;;;;;;;1.27;0.32;;;15.90;50.10;15.10;100039.00;;;;5074821;28;20052;-68
2022/04/05 05:18:25;;;;;;;0.68;0.30;;;15.90;50.10;15.10;100031.00;;;;5075101;28;20032;-68
2022/04/05 05:21:11;;;;;;;1.02;0.50;;;15.90;50.10;15.10;100032.00;;;;5070853;28;20063;-68
2022/04/05 05:23:57;;;;;;;0.63;0.30;;;15.90;50.10;15.10;100028.00;;;;5078216;28;20048;-68
2022/04/05 05:26:43;;;;;;;0.60;0.22;;;16.00;50.20;15.10;100025.00;;;;5073838;28;20108;-68
2022/04/05 05:29:29;;;;;;;0.45;0.30;;;15.90;50.10;15.10;100031.00;;;;5073373;28;20040;-68
2022/04/05 05:32:15;;;;;;;0.95;0.30;;;15.90;50.10;15.10;100030.00;;;;5075218;28;20527;-68
2022/04/05 05:35:01;;;;;;;0.93;0.38;;;15.90;50.10;15.10;100026.00;;;;5077171;28;20036;-68
2022/04/05 05:37:48;;;;;;;1.90;0.40;;;15.90;50.10;15.10;100033.00;;;;5074152;28;20481;-68
2022/04/05 05:40:34;;;;;;;0.52;0.40;;;15.90;50.10;15.10;100027.00;;;;5058862;28;20370;-69
2022/04/05 05:43:23;;;;;;;0.93;0.60;;;16.00;50.10;15.10;100027.00;;;;5076076;28;20043;-69
2022/04/05 05:46:09;;;;;;;0.40;0.40;;;15.90;50.10;15.10;100031.00;;;;5057924;28;20259;-68
2022/04/05 05:48:55;;;;;;;0.68;0.45;;;15.90;50.10;15.10;100035.00;;;;5073561;28;20529;-68
2022/04/05 05:51:41;;;;;;;0.60;0.40;;;16.00;50.10;15.10;100041.00;;;;5077228;28;20051;-68
2022/04/05 05:54:27;;;;;;;0.93;0.50;;;16.00;50.10;15.10;100036.00;;;;5072911;28;20048;-68
2022/04/05 05:57:13;;;;;;;3.03;0.60;;;15.90;50.10;15.10;100036.00;;;;5077081;28;20040;-68
2022/04/05 05:59:59;;;;;;;1.10;0.45;;;15.90;50.10;15.10;100039.00;;;;5073328;28;20040;-68
2022/04/05 06:02:45;;;;;;;0.65;0.50;;;15.90;50.10;15.10;100037.00;;;;5070743;28;20115;-68
2022/04/05 06:05:31;;;;;;;2.08;0.40;;;16.00;50.10;15.10;100038.00;;;;5073303;28;20085;-68
2022/04/05 06:08:17;;;;;;;1.17;0.47;;;15.90;50.10;15.10;100040.00;;;;5070586;28;20052;-68
2022/04/05 06:11:05;;;;;;;0.70;0.40;;;16.00;50.10;15.10;100047.00;;;;5075485;28;20044;-68
2022/04/05 06:13:52;;;;;;;;;;;16.00;50.10;15.10;100054.00;;;;5072354;28;20037;-68
2022/04/05 06:16:38;;;;;;;1.77;0.47;;;16.00;50.00;15.10;100052.00;;;;5079495;28;20445;-68
2022/04/05 06:19:24;;;;;;;1.20;0.50;;;16.00;50.00;15.10;100045.00;;;;5074459;28;20040;-69
2022/04/05 06:22:10;;;;;;;1.05;0.50;;;16.00;50.00;15.10;100053.00;;;;5072061;28;20623;-68
2022/04/05 06:24:56;;;;;;;1.42;0.50;;;16.00;50.80;15.10;100056.00;;;;5068295;28;20041;-68
2022/04/05 06:27:42;;;;;;;1.10;0.50;;;15.90;50.10;15.10;100050.00;;;;5071287;28;20371;-68
2022/04/05 06:30:28;;;;;;;1.30;0.40;;;16.00;50.10;15.10;100058.00;;;;5062009;28;20449;-69
2022/04/05 06:33:18;;;;;;;0.90;0.50;;;15.90;50.10;15.10;100052.00;;;;5062726;28;20487;-69
2022/04/05 06:36:04;;;;;;;1.38;0.60;;;15.90;50.20;15.10;100057.00;;;;5071585;28;20103;-69
2022/04/05 06:38:50;;;;;;;1.48;0.63;;;16.00;50.20;15.10;100050.00;;;;5063053;28;20038;-68
2022/04/05 06:41:36;;;;;;;1.65;0.50;;;16.00;50.20;15.10;100050.00;;;;5076626;28;20040;-68
2022/04/05 06:44:22;;;;;;;2.10;0.60;;;16.00;50.20;15.10;100050.00;;;;5070377;28;20175;-69
2022/04/05 06:47:11;;;;;;;1.25;0.50;;;16.00;50.20;15.10;100044.00;;;;5079347;28;20048;-68
2022/04/05 06:49:57;;;;;;;1.20;0.75;;;16.00;50.20;15.10;100040.00;;;;5067482;28;20113;-69
2022/04/05 06:52:43;;;;;;;2.00;0.45;;;16.00;50.20;15.10;100045.00;;;;5075503;28;20478;-68
2022/04/05 06:55:30;;;;;;;1.40;0.52;;;16.00;50.20;15.10;100046.00;;;;5069033;28;20044;-68
2022/04/05 06:58:16;;;;;;;1.45;0.47;;;16.00;50.20;15.10;100047.00;;;;5077652;28;20051;-69
2022/04/05 07:01:02;;;;;;;0.80;0.52;;;16.00;50.20;15.10;100054.00;;;;5071505;28;20047;-68
2022/04/05 07:03:48;;;;;;;1.10;0.50;;;16.00;50.20;15.10;100057.00;;;;5076854;28;20561;-68
2022/04/05 07:06:35;;;;;;;1.88;0.60;;;16.00;50.20;15.10;100057.00;;;;5071589;28;20070;-68
2022/04/05 07:09:22;;;;;;;2.50;0.68;;;16.00;50.20;15.10;100053.00;;;;5074273;28;20416;-68
2022/04/05 07:12:09;;;;;;;1.23;0.40;;;16.00;50.20;15.10;100057.00;;;;5041749;28;20103;-68
2022/04/05 07:14:55;;;;;;;1.35;0.52;;;16.00;50.20;15.10;100060.00;;;;5039565;28;20037;-68
2022/04/05 07:17:41;;;;;;;0.93;0.50;;;16.00;50.20;15.10;100052.00;;;;5052855;28;20495;-68
2022/04/05 07:20:27;;;;;;;1.13;0.63;;;16.00;50.20;15.10;100051.00;;;;5046460;28;20220;-68
2022/04/05 07:23:15;;;;;;;1.50;0.60;;;16.00;50.20;15.10;100042.00;;;;5052737;28;20041;-68
2022/04/05 07:26:01;;;;;;;0.47;0.47;;;16.00;50.20;15.10;100048.00;;;;5058350;28;20065;-68
2022/04/05 07:28:48;;;;;;;0.40;0.40;;;16.00;50.20;15.10;100039.00;;;;5057997;28;20053;-68
2022/04/05 07:31:34;;;;;;;0.85;0.60;;;16.00;50.20;15.10;100034.00;;;;5064646;28;20115;-68
2022/04/05 07:34:20;;;;;;;0.68;0.50;;;16.00;50.20;15.10;100035.00;;;;5064819;28;20037;-68
2022/04/05 07:37:09;;;;;;;0.77;0.60;;;16.00;50.20;15.20;100034.00;;;;5041652;28;20052;-68
2022/04/05 07:39:55;;;;;;;0.95;0.40;;;16.00;50.20;15.20;100034.00;;;;5057932;28;20394;-68
2022/04/05 07:42:42;;;;;;;1.02;0.60;;;16.00;50.20;15.20;100032.00;;;;5057035;28;20047;-69
2022/04/05 07:45:29;;;;;;;1.38;0.55;;;16.00;50.20;15.20;100036.00;;;;5039068;28;20465;-69
2022/04/05 07:48:26;;;;;;;4.35;1.10;;;16.00;50.20;15.20;100033.00;;;;5044178;28;20087;-68
2022/04/05 07:51:13;;;;;;;0.50;0.50;;;16.00;50.20;15.20;100034.00;;;;5039953;28;20048;-69
2022/04/05 07:53:59;;;;;;;0.63;0.40;;;16.00;50.20;15.20;100035.00;;;;5046625;28;20115;-68
2022/04/05 07:56:45;;;;;;;1.02;0.50;;;16.00;50.20;15.20;100035.00;;;;5055105;28;20047;-69
2022/04/05 07:59:31;;;;;;;2.25;0.40;;;16.10;50.20;15.20;100032.00;;;;5075123;28;20554;-69
2022/04/05 08:02:18;;;;;;;0.68;0.50;;;16.10;50.20;15.20;100037.00;;;;5077492;28;20047;-68
2022/04/05 08:05:05;;;;;;;0.85;0.50;;;16.10;50.20;15.20;100034.00;;;;5056538;28;20086;-68
2022/04/05 08:07:51;;;;;;;0.40;0.40;;;16.10;50.20;15.30;100032.00;;;;5079668;28;20047;-68
2022/04/05 08:10:37;;;;;;;0.68;0.30;;;16.10;50.10;15.30;100031.00;;;;5080294;28;20044;-68
2022/04/05 08:13:26;;;;;;;1.02;0.45;;;16.10;50.10;15.30;100030.00;;;;5084673;28;20097;-69
2022/04/05 08:16:12;;;;;;;1.58;0.60;;;16.10;50.10;15.30;100033.00;;;;5060399;28;20067;-69
2022/04/05 08:18:58;;;;;;;0.40;0.30;;;16.10;50.00;15.30;100037.00;;;;5073349;28;20040;-68
2022/04/05 08:21:44;;;;;;;0.77;0.50;;;16.10;50.00;15.30;100033.00;;;;5068247;28;20473;-69
2022/04/05 08:24:30;;;;;;;0.93;0.60;;;16.10;50.00;15.30;100039.00;;;;5064623;28;20064;-68
2022/04/05 08:27:16;;;;;;;0.82;0.50;;;16.20;50.10;15.30;100027.00;;;;5075983;28;20048;-69
2022/04/05 08:30:04;;;;;;;0.80;0.50;;;16.20;50.10;15.30;100027.00;;;;5075104;28;20040;-68
2022/04/05 08:32:50;;;;;;;1.20;0.47;;;16.20;50.10;15.30;100035.00;;;;5073204;28;20581;-68
2022/04/05 08:35:37;;;;;;;0.70;0.40;;;16.10;50.00;15.30;100038.00;;;;5077591;28;20032;-68
2022/04/05 08:38:23;;;;;;;0.77;0.47;;;16.20;50.00;15.30;100037.00;;;;5075238;28;20473;-68
2022/04/05 08:41:09;;;;;;;0.90;0.40;;;16.20;50.00;15.30;100038.00;;;;5076358;28;20044;-68
2022/04/05 08:43:56;;;;;;;2.45;0.60;;;16.20;50.00;15.30;100038.00;;;;5066719;28;20126;-68
2022/04/05 08:46:42;;;;;;;0.63;0.43;;;16.20;50.10;15.30;100037.00;;;;5063852;28;20278;-69
2022/04/05 08:49:29;;;;;;;1.55;0.73;;;16.20;50.10;15.30;100042.00;;;;5078228;28;20041;-68
2022/04/05 08:52:15;;;;;;;0.82;0.40;;;16.20;50.10;15.30;100035.00;;;;5071539;28;20052;-68
2022/04/05 08:55:01;;;;;;;1.02;0.47;;;16.20;50.10;15.30;100035.00;;;;5066714;28;20363;-68
2022/04/05 08:57:47;;;;;;;1.95;0.40;;;16.20;50.10;15.30;100041.00;;;;5068668;28;20051;-68
2022/04/05 09:00:33;;;;;;;2.17;0.93;;;16.10;50.70;15.30;100035.00;;;;5069002;28;20492;-69
2022/04/05 09:03:19;;;;;;;1.15;0.47;;;16.20;50.10;15.30;100039.00;;;;5056047;28;20519;-68
2022/04/05 09:06:44;;;;;;;2.00;0.57;;;16.20;50.10;15.30;100037.00;;;;5082297;28;20040;-68
2022/04/05 09:09:30;;;;;;;2.08;0.57;;;16.30;50.80;15.30;100042.00;;;;5017296;28;20045;-68
2022/04/05 09:12:17;;;;;;;0.63;0.40;;;16.20;50.10;15.30;100043.00;;;;5006286;28;20049;-68
2022/04/05 09:15:09;;;;;;;0.88;0.57;;;16.10;50.10;15.30;100041.00;;;;5053332;28;20036;-68
2022/04/05 09:17:55;;;;;;;1.23;0.52;;;16.10;50.20;15.30;100035.00;;;;5083683;28;20422;-68
2022/04/05 09:20:49;;;;;;;1.88;0.90;;;16.10;50.10;15.30;100042.00;;;;5075298;28;20059;-69
2022/04/05 09:23:41;;;;;;;0.93;0.50;;;16.10;50.20;15.30;100034.00;;;;5069510;28;20038;-68
2022/04/05 09:26:27;;;;;;;2.08;0.80;;;16.10;50.20;15.30;100043.00;;;;5092580;28;20041;-69
2022/04/05 09:29:14;;;;;;;1.20;0.50;;;16.10;50.10;15.30;100031.00;;;;5044997;28;20036;-68
2022/04/05 09:32:00;;;;;;;2.03;0.82;;;16.10;50.20;15.30;100031.00;;;;5074437;28;20040;-69
2022/04/05 09:34:50;;;;;;;0.90;0.50;;;16.10;50.20;15.30;100031.00;;;;5075822;28;20537;-69
2022/04/05 09:37:38;;;;;;;1.60;0.75;;;16.10;50.20;15.30;100027.00;;;;5074432;28;20044;-69
2022/04/05 09:40:32;;;;;;;;;;;16.10;50.20;15.30;100024.00;;;;5065507;28;20037;-69
2022/04/05 09:43:18;;;;;;;1.75;0.73;;;16.20;50.10;15.30;100035.00;;;;5063495;28;19916;-69
2022/04/05 09:46:05;;;;;;;1.33;0.73;;;16.20;50.10;15.30;100023.00;;;;5075507;28;20493;-68
2022/04/05 09:49:08;;;;;;;1.17;0.65;;;16.20;50.20;15.30;100028.00;;;;5073681;28;20168;-68
2022/04/05 09:51:54;;;;;;;1.17;0.65;;;16.20;50.20;15.30;100020.00;;;;5063332;28;20556;-68
2022/04/05 09:54:40;;;;;;;0.65;0.60;;;16.20;50.20;15.30;100022.00;;;;5061211;28;20066;-68
2022/04/05 09:57:32;;;;;;;0.65;0.63;;;16.10;50.20;15.30;100020.00;;;;5080699;28;20500;-68
2022/04/05 10:00:19;;;;;;;1.95;0.75;;;16.10;50.30;15.30;100018.00;;;;5078750;28;20066;-69
2022/04/05 10:03:10;;;;;;;0.83;0.60;;;16.10;50.30;15.30;100021.00;;;;5080139;28;20047;-69
2022/04/05 10:05:56;;;;;;;1.13;0.60;;;16.10;50.30;15.30;100019.00;;;;5057862;28;20390;-69
2022/04/05 10:08:42;;;;;;;0.70;0.40;;;16.10;50.50;15.30;100016.00;;;;5057373;28;20118;-69
2022/04/05 10:11:30;;;;;;;0.57;0.40;;;16.10;50.40;15.30;100014.00;;;;5040485;28;20505;-69
2022/04/05 10:14:23;;;;;;;0.50;0.50;;;16.00;50.40;15.30;100010.00;;;;5047285;28;20048;-69
2022/04/05 10:17:10;;;;;;;0.40;0.40;;;16.20;50.50;15.30;100015.00;;;;5041902;28;20040;-69
2022/04/05 10:19:56;;;;;;;0.98;0.47;;;16.10;50.50;15.30;100010.00;;;;5026323;28;20036;-69
2022/04/05 10:22:42;;;;;;;0.50;0.40;;;16.10;50.60;15.30;100008.00;;;;5055106;28;20048;-68
2022/04/05 10:25:29;;;;;;;0.50;0.40;;;16.10;50.60;15.20;100003.00;;;;5045976;28;20048;-69
2022/04/05 10:28:16;;;;;;;0.95;0.50;;;16.10;50.70;15.20;100008.00;;;;5054634;28;20131;-69
2022/04/05 10:31:57;;;;;;;0.43;0.30;;;16.10;50.70;15.20;100010.00;;;;5026172;28;20131;-69
2022/04/05 10:34:46;;;;;;;1.25;0.40;;;16.10;50.90;15.20;100009.00;;;;5056707;28;20158;-69
2022/04/05 10:37:37;;;;;;;0.30;0.30;;;16.10;50.80;15.20;100008.00;;;;5046846;28;20501;-69
2022/04/05 10:40:23;;;;;;;0.57;0.38;;;16.10;51.10;15.20;100005.00;;;;5060024;28;20094;-69
2022/04/05 10:43:19;;;;;;;0.40;0.40;;;16.10;50.90;15.20;100010.00;;;;5053933;28;20045;-69
2022/04/05 10:46:06;;;;;;;1.13;0.50;;;16.10;51.40;15.20;99998.00;;;;5052296;28;20063;-69
2022/04/05 10:48:56;;;;;;;0.73;0.52;;;16.10;51.40;15.20;99999.00;;;;5051313;28;20055;-70
2022/04/05 10:52:15;;;;;;;0.60;0.50;;;16.10;51.30;15.20;100005.00;;;;5042288;28;20044;-69
2022/04/05 10:55:01;;;;;;;1.05;0.85;;;16.10;51.40;15.20;99998.00;;;;5055012;28;20451;-69
2022/04/05 10:57:47;;;;;;;0.95;0.75;;;16.10;51.50;15.20;99996.00;;;;5054523;28;20036;-69
2022/04/05 11:00:33;;;;;;;1.35;1.00;;;16.10;51.50;15.20;99990.00;;;;5068897;28;20033;-69
2022/04/05 11:03:19;;;;;;;1.27;1.08;;;16.10;51.70;15.20;99991.00;;;;5070960;28;20072;-69
2022/04/05 11:06:05;;;;;;;1.60;0.70;;;16.10;51.80;15.20;99982.00;;;;5061360;28;20041;-69
2022/04/05 11:08:51;;;;;;;1.40;0.73;;;16.10;51.60;15.20;99985.00;;;;5059632;28;20083;-69
2022/04/05 11:11:38;;;;;;;0.77;0.77;;;16.10;51.60;15.30;99986.00;;;;5054972;28;20256;-69
2022/04/05 11:14:45;;;;;;;1.20;1.10;;;16.10;51.70;15.30;99984.00;;;;5045386;28;20051;-69
2022/04/05 11:17:32;;;;;;;1.25;0.93;;;16.10;52.00;15.30;99982.00;;;;5033354;28;20475;-69
2022/04/05 11:20:18;;;;;;;1.38;1.00;;;16.10;51.60;15.30;99980.00;;;;5028870;28;20040;-69
2022/04/05 11:23:05;;;;;;;1.08;0.98;;;16.10;51.70;15.30;99985.00;;;;5044390;28;20601;-69
2022/04/05 11:25:51;;;;;;;1.40;1.00;;;16.10;51.90;15.30;99990.00;;;;5038987;28;20045;-69
2022/04/05 11:28:49;;;;;;;1.15;1.05;;;16.20;51.90;15.30;99981.00;;;;5041453;28;20048;-69
2022/04/05 11:31:37;;;;;;;1.60;1.30;;;16.20;52.00;15.30;99986.00;;;;5059564;28;20451;-69
2022/04/05 11:34:38;;;;;;;1.77;1.15;;;16.20;52.00;15.30;99978.00;;;;5063731;28;20037;-69
2022/04/05 11:37:33;;;;;;;1.77;1.00;;;16.20;52.20;15.30;99978.00;;;;5047243;28;20491;-69
2022/04/05 11:40:19;;;;;;;2.35;1.30;;;16.20;52.00;15.30;99982.00;;;;5060212;28;20044;-69
2022/04/05 11:43:05;;;;;;;2.22;1.20;;;16.20;51.90;15.30;99976.00;;;;5062562;28;20616;-69
2022/04/05 11:45:57;;;;;;;1.88;1.30;;;16.30;51.90;15.30;99985.00;;;;5044302;28;20056;-69
2022/04/05 11:48:51;;;;;;;2.05;1.38;;;16.30;52.40;15.40;99976.00;;;;5045954;28;20051;-69
2022/04/05 11:51:38;;;;;;;1.67;1.45;;;16.30;52.10;15.40;99976.00;;;;5058948;28;20502;-69
2022/04/05 11:54:24;;;;;;;2.60;1.52;;;16.30;52.00;15.40;99980.00;;;;5064338;28;20067;-69
2022/04/05 11:57:10;;;;;;;2.65;1.52;;;16.30;52.00;15.40;99970.00;;;;5034092;28;20076;-69
2022/04/05 12:00:08;;;;;;;1.83;1.50;;;16.30;52.10;15.40;99970.00;;;;5055202;28;20450;-69
2022/04/05 12:03:05;;;;;;;2.03;1.48;;;16.30;52.30;15.40;99972.00;;;;5051206;28;20045;-69
2022/04/05 12:05:52;;;;;;;1.95;1.65;;;16.30;52.30;15.40;99979.00;;;;5060399;28;20051;-70
2022/04/05 12:08:38;;;;;;;2.08;1.50;;;16.30;52.30;15.40;99973.00;;;;5060425;28;20465;-69
2022/04/05 12:11:26;;;;;;;2.55;1.60;;;16.30;52.30;15.40;99968.00;;;;5059782;28;20511;-69
2022/04/05 12:14:24;;;;;;;3.50;1.60;;;16.30;52.20;15.40;99972.00;;;;5044691;28;20040;-70
2022/04/05 12:17:10;;;;;;;1.85;1.45;;;16.30;52.40;15.40;99974.00;;;;5058008;28;20041;-70
2022/04/05 12:19:56;;;;;;;3.45;1.20;;;16.40;52.40;15.40;99972.00;;;;5062295;28;20055;-69
2022/04/05 12:22:42;;;;;;;1.88;1.40;;;16.40;52.30;15.40;99974.00;;;;5063575;28;20044;-69